Time;durP1;ratioP1;P1;durP2;ratioP2;P2;SDS_P1;SDS_P2;PMS_P1;PMS_P2;Temp;Humidity;BMP_temperature;BMP_pressure;BME280_temperature;BME280_humidity;BME280_pressure;Samples;Min_cycle;Max_cycle;Signal;HPM_P1;HPM_P2
2024/04/12 00:01:48;;;;;;;4.38;3.03;;;;;;;;;;5468634;26;20505;-66
2024/04/12 00:04:20;;;;;;;7.05;3.35;;;;;;;;;;5430758;26;20023;-66
2024/04/12 00:07:00;;;;;;;4.90;3.80;;;;;;;;;;5457929;25;20026;-66
2024/04/12 00:09:29;;;;;;;5.25;3.88;;;;;;;;;;5467418;25;20493;-67
2024/04/12 00:11:55;;;;;;;4.40;3.47;;;;;;;;;;5464979;26;20030;-68
2024/04/12 00:14:22;;;;;;;4.80;3.90;;;;;;;;;;5470748;26;20018;-68
2024/04/12 00:16:52;;;;;;;5.35;3.42;;;;;;;;;;5468199;26;20357;-68
2024/04/12 00:19:19;;;;;;;5.95;4.10;;;;;;;;;;5473464;26;20018;-67
2024/04/12 00:21:51;;;;;;;6.32;3.95;;;;;;;;;;5464088;26;20050;-67
2024/04/12 00:24:18;;;;;;;6.35;3.90;;;;;;;;;;5437147;26;20373;-67
2024/04/12 00:26:46;;;;;;;7.28;4.10;;;;;;;;;;5451317;26;20027;-67
2024/04/12 00:29:36;;;;;;;7.03;4.25;;;;;;;;;;5472351;26;20026;-67
2024/04/12 00:32:05;;;;;;;6.03;4.57;;;;;;;;;;5467019;26;20031;-67
2024/04/12 00:34:38;;;;;;;5.35;4.20;;;;;;;;;;5481909;26;20025;-66
2024/04/12 00:37:09;;;;;;;6.63;3.83;;;;;;;;;;5469858;26;20026;-68
2024/04/12 00:39:36;;;;;;;7.15;4.57;;;;;;;;;;5465140;26;20022;-67
2024/04/12 00:42:07;;;;;;;6.03;4.00;;;;;;;;;;5460821;26;20022;-67
2024/04/12 00:44:35;;;;;;;6.00;4.05;;;;;;;;;;5469367;26;20028;-67
2024/04/12 00:47:07;;;;;;;5.97;4.40;;;;;;;;;;5459305;26;20547;-67
2024/04/12 00:49:36;;;;;;;7.38;4.75;;;;;;;;;;5441959;26;20098;-67
2024/04/12 00:52:04;;;;;;;4.53;3.90;;;;;;;;;;5463118;26;20019;-68
2024/04/12 00:54:32;;;;;;;9.88;5.20;;;;;;;;;;5470850;26;20389;-68
2024/04/12 00:57:02;;;;;;;10.48;5.35;;;;;;;;;;5451696;26;20031;-68
2024/04/12 00:59:31;;;;;;;8.00;5.13;;;;;;;;;;5455381;26;20021;-68
2024/04/12 01:01:59;;;;;;;6.82;4.72;;;;;;;;;;5464012;26;20034;-67
2024/04/12 01:04:25;;;;;;;6.95;4.50;;;;;;;;;;5461544;26;20043;-67
2024/04/12 01:06:51;;;;;;;11.95;5.07;;;;;;;;;;5463456;26;20023;-66
2024/04/12 01:09:21;;;;;;;7.75;4.80;;;;;;;;;;5461996;26;20029;-66
2024/04/12 01:11:47;;;;;;;8.00;4.57;;;;;;;;;;5458226;26;20019;-66
2024/04/12 01:14:13;;;;;;;8.95;4.93;;;;;;;;;;5427123;26;20039;-66
2024/04/12 01:16:39;;;;;;;8.55;5.90;;;;;;;;;;5454754;26;20039;-66
2024/04/12 01:19:11;;;;;;;8.40;5.22;;;;;;;;;;5493588;26;20026;-66
2024/04/12 01:21:38;;;;;;;9.05;5.32;;;;;;;;;;5470514;26;20505;-67
2024/04/12 01:24:06;;;;;;;6.80;5.00;;;;;;;;;;5470742;26;20114;-66
2024/04/12 01:26:32;;;;;;;7.28;4.95;;;;;;;;;;5429128;26;20042;-66
2024/04/12 01:28:58;;;;;;;7.43;5.40;;;;;;;;;;5466775;26;20037;-66
2024/04/12 01:31:27;;;;;;;7.65;5.15;;;;;;;;;;5471461;26;20026;-66
2024/04/12 01:33:54;;;;;;;8.43;4.68;;;;;;;;;;5455485;26;20378;-67
2024/04/12 01:36:22;;;;;;;7.63;5.15;;;;;;;;;;5458522;26;20102;-67
2024/04/12 01:38:57;;;;;;;8.30;5.20;;;;;;;;;;5471497;26;20477;-66
2024/04/12 01:41:24;;;;;;;10.52;5.57;;;;;;;;;;5468213;26;20025;-66
2024/04/12 01:43:54;;;;;;;10.07;5.55;;;;;;;;;;5467873;26;20035;-66
2024/04/12 01:46:27;;;;;;;;;;;;;;;;;;5470860;25;20023;-66
2024/04/12 01:48:54;;;;;;;7.85;5.28;;;;;;;;;;5430737;26;19934;-66
2024/04/12 01:51:24;;;;;;;7.70;5.00;;;;;;;;;;5466012;26;20078;-66
2024/04/12 01:53:55;;;;;;;6.43;5.22;;;;;;;;;;5453642;26;20047;-66
2024/04/12 01:56:26;;;;;;;8.15;5.40;;;;;;;;;;5452482;26;20035;-66
2024/04/12 01:58:54;;;;;;;8.93;5.22;;;;;;;;;;5459302;26;20030;-65
2024/04/12 02:01:26;;;;;;;6.57;5.30;;;;;;;;;;5458774;25;20381;-66
2024/04/12 02:03:53;;;;;;;8.00;5.13;;;;;;;;;;5453895;26;20031;-66
2024/04/12 02:06:22;;;;;;;9.40;5.65;;;;;;;;;;5454476;26;20076;-68
2024/04/12 02:08:48;;;;;;;8.35;5.80;;;;;;;;;;5465398;26;20031;-67
2024/04/12 02:11:22;;;;;;;8.88;5.80;;;;;;;;;;5463748;26;20027;-68
2024/04/12 02:13:52;;;;;;;6.90;5.28;;;;;;;;;;5450997;26;20031;-68
2024/04/12 02:16:20;;;;;;;7.75;5.50;;;;;;;;;;5461067;26;20038;-68
2024/04/12 02:18:47;;;;;;;8.60;5.65;;;;;;;;;;5463882;26;20094;-68
2024/04/12 02:21:13;;;;;;;8.90;5.68;;;;;;;;;;5465930;26;20037;-68
2024/04/12 02:23:40;;;;;;;6.97;5.00;;;;;;;;;;5471122;26;20380;-68
2024/04/12 02:26:09;;;;;;;9.57;5.75;;;;;;;;;;5427504;26;20030;-68
2024/04/12 02:28:40;;;;;;;7.93;5.10;;;;;;;;;;5468707;26;20045;-67
2024/04/12 02:31:08;;;;;;;8.35;5.55;;;;;;;;;;5459328;26;20019;-68
2024/04/12 02:33:35;;;;;;;9.83;5.77;;;;;;;;;;5433308;26;20018;-66
2024/04/12 02:36:12;;;;;;;8.60;5.35;;;;;;;;;;5460849;25;20385;-68
2024/04/12 02:38:49;;;;;;;6.97;5.60;;;;;;;;;;5455374;26;20369;-68
2024/04/12 02:41:17;;;;;;;7.70;5.15;;;;;;;;;;5464761;26;20019;-68
2024/04/12 02:43:52;;;;;;;7.88;5.22;;;;;;;;;;5469926;26;20033;-68
2024/04/12 02:46:19;;;;;;;7.65;5.57;;;;;;;;;;5459444;26;20042;-68
2024/04/12 02:48:48;;;;;;;9.57;5.78;;;;;;;;;;5448614;26;20031;-67
2024/04/12 02:51:17;;;;;;;7.78;5.30;;;;;;;;;;5418436;26;20023;-68
2024/04/12 02:53:44;;;;;;;8.82;5.70;;;;;;;;;;5454232;26;20348;-69
2024/04/12 02:56:13;;;;;;;8.45;5.40;;;;;;;;;;5461514;26;20376;-67
2024/04/12 02:58:40;;;;;;;7.70;5.20;;;;;;;;;;5463907;26;20038;-68
2024/04/12 03:01:13;;;;;;;8.55;5.97;;;;;;;;;;5459061;26;20030;-68
2024/04/12 03:03:46;;;;;;;8.10;5.70;;;;;;;;;;5456390;26;20370;-68
2024/04/12 03:06:17;;;;;;;8.15;6.10;;;;;;;;;;5455082;26;20454;-67
2024/04/12 03:08:47;;;;;;;9.95;5.63;;;;;;;;;;5472835;26;20452;-68
2024/04/12 03:11:22;;;;;;;10.10;6.07;;;;;;;;;;5466727;26;20414;-67
2024/04/12 03:13:52;;;;;;;10.75;6.35;;;;;;;;;;5474771;26;20029;-67
2024/04/12 03:16:20;;;;;;;7.55;5.38;;;;;;;;;;5478065;26;20094;-68
2024/04/12 03:18:51;;;;;;;10.55;6.10;;;;;;;;;;5463903;26;20106;-68
2024/04/12 03:21:22;;;;;;;11.02;6.40;;;;;;;;;;5468644;26;20022;-67
2024/04/12 03:23:49;;;;;;;8.07;5.75;;;;;;;;;;5460274;26;20043;-65
2024/04/12 03:26:26;;;;;;;8.20;6.05;;;;;;;;;;5460105;26;20023;-67
2024/04/12 03:29:03;;;;;;;9.10;5.80;;;;;;;;;;5471827;26;20536;-66
2024/04/12 03:31:33;;;;;;;8.82;6.35;;;;;;;;;;5460177;26;20038;-67
2024/04/12 03:34:06;;;;;;;11.30;7.13;;;;;;;;;;5450190;26;20041;-66
2024/04/12 03:44:33;;;;;;;8.82;6.18;;;;;;;;;;5426072;26;20042;-65
2024/04/12 03:47:08;;;;;;;9.85;6.75;;;;;;;;;;5460266;26;20030;-66
2024/04/12 03:49:44;;;;;;;9.77;5.90;;;;;;;;;;5464210;26;20030;-66
2024/04/12 03:52:14;;;;;;;9.20;6.57;;;;;;;;;;5416773;26;20026;-67
2024/04/12 03:54:40;;;;;;;;;;;;;;;;;;5469492;26;20058;-66
2024/04/12 03:57:07;;;;;;;8.85;6.40;;;;;;;;;;5456730;26;19949;-66
2024/04/12 03:59:34;;;;;;;10.52;6.40;;;;;;;;;;5464150;26;20030;-66
2024/04/12 04:02:07;;;;;;;10.77;6.10;;;;;;;;;;5466915;26;20027;-66
2024/04/12 04:04:38;;;;;;;8.98;6.28;;;;;;;;;;5457212;26;20022;-66
2024/04/12 04:07:05;;;;;;;9.98;6.32;;;;;;;;;;5460382;25;20031;-66
2024/04/12 04:09:32;;;;;;;9.00;6.22;;;;;;;;;;5455554;26;20557;-66
2024/04/12 04:11:59;;;;;;;9.90;6.30;;;;;;;;;;5440100;26;20038;-66
2024/04/12 04:14:26;;;;;;;11.35;6.72;;;;;;;;;;5470546;26;20505;-66
2024/04/12 04:16:56;;;;;;;10.63;6.90;;;;;;;;;;5466171;26;20564;-65
2024/04/12 04:19:33;;;;;;;12.82;7.07;;;;;;;;;;5471929;26;20026;-65
2024/04/12 04:22:21;;;;;;;10.68;6.97;;;;;;;;;;5460393;26;20034;-65
2024/04/12 04:24:51;;;;;;;9.50;6.70;;;;;;;;;;5459811;26;20035;-67
2024/04/12 04:27:18;;;;;;;10.52;6.97;;;;;;;;;;5463794;26;20426;-66
2024/04/12 04:29:44;;;;;;;11.70;6.88;;;;;;;;;;5454887;26;20027;-66
2024/04/12 04:32:10;;;;;;;11.15;6.25;;;;;;;;;;5455114;26;20046;-66
2024/04/12 04:34:36;;;;;;;9.15;6.38;;;;;;;;;;5471343;26;20145;-66
2024/04/12 04:37:05;;;;;;;10.35;6.80;;;;;;;;;;5477834;26;20030;-65
2024/04/12 04:39:32;;;;;;;9.70;7.13;;;;;;;;;;5473935;26;20031;-66
2024/04/12 04:41:59;;;;;;;11.60;7.03;;;;;;;;;;5450455;25;20027;-65
2024/04/12 04:44:25;;;;;;;11.60;7.78;;;;;;;;;;5474915;26;20025;-66
2024/04/12 04:46:53;;;;;;;10.77;7.55;;;;;;;;;;5468600;26;20031;-66
2024/04/12 04:49:23;;;;;;;13.63;7.68;;;;;;;;;;5437069;26;20025;-63
2024/04/12 04:51:50;;;;;;;11.55;7.38;;;;;;;;;;5475162;26;20038;-62
2024/04/12 04:54:22;;;;;;;10.63;7.25;;;;;;;;;;5464379;26;20050;-61
2024/04/12 04:56:48;;;;;;;10.55;7.43;;;;;;;;;;5451956;26;20027;-62
2024/04/12 04:59:16;;;;;;;10.93;7.20;;;;;;;;;;5453660;26;20026;-62
2024/04/12 05:01:48;;;;;;;13.00;7.30;;;;;;;;;;5477827;26;20030;-62
2024/04/12 05:04:16;;;;;;;16.45;8.75;;;;;;;;;;5463934;26;20026;-62
2024/04/12 05:06:43;;;;;;;16.45;9.35;;;;;;;;;;5463895;26;20026;-62
2024/04/12 05:09:11;;;;;;;12.68;8.73;;;;;;;;;;5467186;26;20351;-62
2024/04/12 05:11:38;;;;;;;14.25;8.43;;;;;;;;;;5467786;26;20034;-65
2024/04/12 05:14:14;;;;;;;15.68;8.23;;;;;;;;;;5449868;26;19999;-64
2024/04/12 05:16:43;;;;;;;14.38;9.05;;;;;;;;;;5464996;25;20370;-64
2024/04/12 05:19:10;;;;;;;16.63;9.20;;;;;;;;;;5423280;26;20047;-64
2024/04/12 05:21:41;;;;;;;16.80;9.38;;;;;;;;;;5471449;26;20380;-64
2024/04/12 05:24:11;;;;;;;15.25;8.90;;;;;;;;;;5405006;26;20018;-63
2024/04/12 05:26:41;;;;;;;13.73;8.63;;;;;;;;;;5474150;26;20030;-63
2024/04/12 05:29:12;;;;;;;15.43;9.70;;;;;;;;;;5434505;26;20459;-64
2024/04/12 05:31:44;;;;;;;13.93;8.68;;;;;;;;;;5463423;26;20045;-66
2024/04/12 05:34:18;;;;;;;13.48;8.32;;;;;;;;;;5455184;26;20038;-66
2024/04/12 05:36:47;;;;;;;16.13;9.50;;;;;;;;;;5463506;26;20099;-64
2024/04/12 05:39:13;;;;;;;19.40;9.63;;;;;;;;;;5468546;26;20055;-66
2024/04/12 05:41:44;;;;;;;15.45;9.15;;;;;;;;;;5456710;26;20034;-63
2024/04/12 05:44:11;;;;;;;13.05;8.68;;;;;;;;;;5455858;26;20042;-64
2024/04/12 05:46:41;;;;;;;13.07;8.20;;;;;;;;;;5471772;26;20029;-63
2024/04/12 05:49:11;;;;;;;11.30;7.82;;;;;;;;;;5443017;26;20029;-64
2024/04/12 05:51:41;;;;;;;13.27;8.52;;;;;;;;;;5456643;26;20035;-64
2024/04/12 05:54:10;;;;;;;;;;;;;;;;;;5456766;26;20023;-64
2024/04/12 05:56:46;;;;;;;14.95;7.93;;;;;;;;;;5464476;26;19952;-64
2024/04/12 05:59:14;;;;;;;13.45;8.23;;;;;;;;;;5463877;26;20382;-64
2024/04/12 06:01:45;;;;;;;14.43;9.23;;;;;;;;;;5466603;26;20030;-64
2024/04/12 06:04:19;;;;;;;15.05;8.93;;;;;;;;;;5465981;26;20049;-64
2024/04/12 06:06:47;;;;;;;16.08;9.02;;;;;;;;;;5472829;26;20039;-65
2024/04/12 06:09:21;;;;;;;16.25;9.30;;;;;;;;;;5473706;26;20648;-64
2024/04/12 06:11:53;;;;;;;17.08;9.30;;;;;;;;;;5471931;26;20561;-64
2024/04/12 06:14:21;;;;;;;16.10;9.35;;;;;;;;;;5442396;26;20048;-64
2024/04/12 06:16:55;;;;;;;16.90;9.25;;;;;;;;;;5471136;26;20023;-64
2024/04/12 06:19:24;;;;;;;16.58;9.85;;;;;;;;;;5473840;26;20042;-63
2024/04/12 06:21:51;;;;;;;13.27;8.30;;;;;;;;;;5467200;26;20023;-64
2024/04/12 06:24:29;;;;;;;16.55;8.75;;;;;;;;;;5475793;26;20030;-63
2024/04/12 06:26:58;;;;;;;14.80;9.40;;;;;;;;;;5471920;26;20026;-64
2024/04/12 06:29:29;;;;;;;16.67;10.48;;;;;;;;;;5461507;26;20047;-64
2024/04/12 06:31:55;;;;;;;15.82;9.63;;;;;;;;;;5470562;26;20023;-64
2024/04/12 06:34:22;;;;;;;17.63;10.40;;;;;;;;;;5469144;26;20021;-64
2024/04/12 06:36:56;;;;;;;15.30;9.45;;;;;;;;;;5469573;26;20035;-64
2024/04/12 06:39:26;;;;;;;14.80;9.13;;;;;;;;;;5460107;26;20054;-66
2024/04/12 06:41:54;;;;;;;15.00;8.85;;;;;;;;;;5462149;26;20049;-64
2024/04/12 06:44:20;;;;;;;16.08;9.32;;;;;;;;;;5471464;26;20037;-63
2024/04/12 06:46:57;;;;;;;15.95;10.10;;;;;;;;;;5467794;26;20027;-64
2024/04/12 06:49:27;;;;;;;16.52;10.65;;;;;;;;;;5463171;26;20381;-64
2024/04/12 06:52:09;;;;;;;16.60;8.82;;;;;;;;;;5465041;26;20408;-64
2024/04/12 06:54:36;;;;;;;17.15;9.85;;;;;;;;;;5463427;26;20026;-64
2024/04/12 06:57:03;;;;;;;17.17;9.75;;;;;;;;;;5461300;26;20026;-63
2024/04/12 06:59:35;;;;;;;14.50;8.80;;;;;;;;;;5475420;26;20018;-66
2024/04/12 07:02:13;;;;;;;24.05;12.65;;;;;;;;;;5464589;26;20026;-64
2024/04/12 07:04:40;;;;;;;19.73;10.90;;;;;;;;;;5464362;26;20575;-64
2024/04/12 07:07:07;;;;;;;16.80;9.25;;;;;;;;;;5469463;26;20050;-63
2024/04/12 07:09:34;;;;;;;13.68;8.95;;;;;;;;;;5468194;26;20005;-63
2024/04/12 07:12:06;;;;;;;23.00;9.63;;;;;;;;;;5470001;26;20037;-63
2024/04/12 07:14:36;;;;;;;16.40;9.75;;;;;;;;;;5467718;26;20584;-64
2024/04/12 07:17:19;;;;;;;18.98;10.82;;;;;;;;;;5460548;26;20105;-64
2024/04/12 07:19:54;;;;;;;24.08;12.77;;;;;;;;;;5466718;26;20022;-64
2024/04/12 07:22:22;;;;;;;20.55;11.15;;;;;;;;;;5465245;26;20027;-64
2024/04/12 07:24:52;;;;;;;23.77;12.52;;;;;;;;;;5460853;26;20047;-63
2024/04/12 07:27:22;;;;;;;20.95;11.75;;;;;;;;;;5466622;26;20027;-64
2024/04/12 07:29:49;;;;;;;21.35;11.90;;;;;;;;;;5462423;26;20018;-63
2024/04/12 07:32:22;;;;;;;17.77;9.95;;;;;;;;;;5466535;26;20019;-63
2024/04/12 07:34:49;;;;;;;17.92;10.48;;;;;;;;;;5469169;26;20025;-62
2024/04/12 07:37:31;;;;;;;22.45;10.88;;;;;;;;;;5483873;26;20027;-64
2024/04/12 07:42:48;;;;;;;18.77;9.52;;;;;;;;;;5461754;26;20018;-63
2024/04/12 07:45:25;;;;;;;17.25;10.15;;;;;;;;;;5464581;26;20698;-64
2024/04/12 07:47:53;;;;;;;19.13;11.05;;;;;;;;;;5435736;26;20023;-63
2024/04/12 07:50:21;;;;;;;16.60;10.48;;;;;;;;;;5466609;26;20030;-63
2024/04/12 07:52:51;;;;;;;20.33;10.13;;;;;;;;;;5464954;26;20022;-63
2024/04/12 07:55:23;;;;;;;19.90;10.30;;;;;;;;;;5431488;26;20038;-63
2024/04/12 07:57:52;;;;;;;16.92;9.70;;;;;;;;;;5466101;26;20371;-62
2024/04/12 08:00:36;;;;;;;19.60;9.98;;;;;;;;;;5470506;26;20027;-63
2024/04/12 08:03:06;;;;;;;17.65;10.65;;;;;;;;;;5465356;26;20026;-63
2024/04/12 08:05:59;;;;;;;17.10;9.93;;;;;;;;;;5470962;26;20395;-64
2024/04/12 08:08:27;;;;;;;19.23;10.40;;;;;;;;;;5471792;26;20026;-62
2024/04/12 08:10:58;;;;;;;19.90;9.98;;;;;;;;;;5469088;26;20029;-63
2024/04/12 08:13:37;;;;;;;18.88;10.88;;;;;;;;;;5459567;26;20023;-63
2024/04/12 08:16:09;;;;;;;;;;;;;;;;;;5468356;26;20056;-63
2024/04/12 08:18:43;;;;;;;15.77;9.10;;;;;;;;;;5468376;26;19959;-63
2024/04/12 08:21:19;;;;;;;19.05;10.45;;;;;;;;;;5463356;26;20030;-63
2024/04/12 08:23:45;;;;;;;20.67;11.23;;;;;;;;;;5468550;26;20027;-63
2024/04/12 08:26:12;;;;;;;16.80;9.77;;;;;;;;;;5466179;26;20022;-63
2024/04/12 08:28:40;;;;;;;18.55;10.52;;;;;;;;;;5463683;26;20041;-62
2024/04/12 08:31:10;;;;;;;19.50;10.13;;;;;;;;;;5473413;26;20035;-63
2024/04/12 08:33:40;;;;;;;17.58;9.63;;;;;;;;;;5465532;26;20026;-64
2024/04/12 08:36:14;;;;;;;15.15;9.55;;;;;;;;;;5466789;26;20026;-64
2024/04/12 08:38:54;;;;;;;16.05;9.65;;;;;;;;;;5473860;26;20022;-64
2024/04/12 08:41:25;;;;;;;16.17;9.07;;;;;;;;;;5460771;26;20379;-62
2024/04/12 08:43:58;;;;;;;19.75;9.90;;;;;;;;;;5461076;26;20010;-62
2024/04/12 08:46:33;;;;;;;15.05;9.70;;;;;;;;;;5463965;26;20038;-63
2024/04/12 08:49:13;;;;;;;15.93;9.35;;;;;;;;;;5460369;26;20039;-63
2024/04/12 08:51:40;;;;;;;14.10;9.73;;;;;;;;;;5455437;26;20026;-64
2024/04/12 08:54:09;;;;;;;16.90;10.82;;;;;;;;;;5465682;26;20383;-63
2024/04/12 08:56:35;;;;;;;18.15;10.05;;;;;;;;;;5464045;26;20026;-64
2024/04/12 08:59:08;;;;;;;14.75;8.82;;;;;;;;;;5467429;26;20027;-64
2024/04/12 09:01:40;;;;;;;12.85;8.80;;;;;;;;;;5461534;26;20042;-64
2024/04/12 09:04:14;;;;;;;15.32;9.55;;;;;;;;;;5432079;26;20035;-65
2024/04/12 09:06:41;;;;;;;13.27;9.68;;;;;;;;;;5464522;26;20029;-65
2024/04/12 09:09:13;;;;;;;15.05;8.98;;;;;;;;;;5467585;26;20031;-64
2024/04/12 09:11:44;;;;;;;15.93;8.85;;;;;;;;;;5470977;26;20030;-64
2024/04/12 09:14:19;;;;;;;14.30;8.50;;;;;;;;;;5460705;26;20154;-64
2024/04/12 09:16:48;;;;;;;14.38;8.73;;;;;;;;;;5454895;26;20495;-65
2024/04/12 09:19:15;;;;;;;16.20;9.83;;;;;;;;;;5463179;26;20042;-64
2024/04/12 09:21:51;;;;;;;14.90;9.13;;;;;;;;;;5465072;26;20026;-64
2024/04/12 09:24:27;;;;;;;16.08;9.15;;;;;;;;;;5469459;26;20470;-64
2024/04/12 09:26:59;;;;;;;11.75;8.13;;;;;;;;;;5463998;26;20034;-64
2024/04/12 09:29:28;;;;;;;11.57;7.18;;;;;;;;;;5464161;26;20025;-64
2024/04/12 09:34:41;;;;;;;11.65;7.57;;;;;;;;;;5460121;26;19980;-64
2024/04/12 09:40:04;;;;;;;10.73;6.63;;;;;;;;;;5460309;26;20043;-64
2024/04/12 09:42:50;;;;;;;;;;;;;;;;;;;;;
2024/04/12 09:45:17;;;;;;;12.93;6.72;;;;;;;;;;5482197;26;20037;-64
2024/04/12 10:38:34;;;;;;;8.90;4.88;;;;;;;;;;5470660;26;20398;-64
2024/04/12 10:41:03;;;;;;;10.18;5.15;;;;;;;;;;5459852;26;20032;-66
2024/04/12 10:43:35;;;;;;;15.23;6.40;;;;;;;;;;5468275;26;20493;-64
2024/04/12 10:46:04;;;;;;;10.38;6.03;;;;;;;;;;5472246;26;20027;-64
2024/04/12 10:48:33;;;;;;;10.18;5.68;;;;;;;;;;5462187;26;20042;-64
2024/04/12 10:51:00;;;;;;;10.05;5.20;;;;;;;;;;5434881;26;20017;-64
2024/04/12 10:53:29;;;;;;;9.68;5.88;;;;;;;;;;5465910;26;20457;-64
2024/04/12 10:55:55;;;;;;;;;;;;;;;;;;5477725;26;20060;-64
2024/04/12 10:58:27;;;;;;;8.20;4.53;;;;;;;;;;5471208;26;19964;-65
2024/04/12 11:00:56;;;;;;;7.10;4.95;;;;;;;;;;5459649;26;20127;-65
2024/04/12 11:03:24;;;;;;;7.72;5.00;;;;;;;;;;5482317;26;20343;-65
2024/04/12 11:05:51;;;;;;;7.47;4.80;;;;;;;;;;5472180;26;20524;-65
2024/04/12 11:08:19;;;;;;;9.70;5.38;;;;;;;;;;5474573;25;20021;-64
2024/04/12 11:10:57;;;;;;;9.80;5.45;;;;;;;;;;5467601;26;20027;-67
2024/04/12 11:13:35;;;;;;;11.32;5.22;;;;;;;;;;5421178;26;20594;-65
2024/04/12 11:32:37;;;;;;;10.02;4.35;;;;;;;;;;5423246;26;20392;-65
2024/04/12 11:35:05;;;;;;;8.00;5.10;;;;;;;;;;5433432;26;20030;-65
2024/04/12 11:37:31;;;;;;;8.93;4.90;;;;;;;;;;5469038;26;20027;-65
2024/04/12 11:39:57;;;;;;;6.07;4.03;;;;;;;;;;5451051;26;20027;-65
2024/04/12 11:42:23;;;;;;;6.55;4.22;;;;;;;;;;5466844;26;20094;-65
2024/04/12 11:44:53;;;;;;;8.07;4.70;;;;;;;;;;5465134;26;20371;-65
2024/04/12 11:47:19;;;;;;;7.72;3.85;;;;;;;;;;5462002;26;20389;-65
2024/04/12 11:49:45;;;;;;;9.60;4.90;;;;;;;;;;5417948;26;19995;-65
2024/04/12 11:52:16;;;;;;;6.18;4.18;;;;;;;;;;5457542;26;20036;-65
2024/04/12 11:54:43;;;;;;;4.30;3.58;;;;;;;;;;5473220;26;20039;-65
2024/04/12 11:57:11;;;;;;;9.38;4.38;;;;;;;;;;5473672;26;20031;-65
2024/04/12 11:59:37;;;;;;;7.90;4.63;;;;;;;;;;5466203;26;20018;-66
2024/04/12 12:02:05;;;;;;;8.57;4.68;;;;;;;;;;5467088;26;20015;-66
2024/04/12 12:04:32;;;;;;;6.95;4.60;;;;;;;;;;5436352;26;20034;-68
2024/04/12 12:07:00;;;;;;;5.53;3.67;;;;;;;;;;5461019;26;20061;-68
2024/04/12 12:09:31;;;;;;;11.07;4.95;;;;;;;;;;5466482;26;20026;-66
2024/04/12 12:12:00;;;;;;;9.80;4.95;;;;;;;;;;5454625;26;20035;-68
2024/04/12 12:14:27;;;;;;;10.93;4.78;;;;;;;;;;5474967;26;20579;-65
2024/04/12 12:16:57;;;;;;;6.75;4.35;;;;;;;;;;5465561;26;20032;-66
2024/04/12 12:19:23;;;;;;;9.10;5.50;;;;;;;;;;5468934;26;19998;-66
2024/04/12 12:21:49;;;;;;;6.60;4.13;;;;;;;;;;5440913;26;20411;-64
2024/04/12 12:24:15;;;;;;;8.18;4.68;;;;;;;;;;5437879;26;20026;-65
2024/04/12 12:26:41;;;;;;;6.32;4.13;;;;;;;;;;5461306;26;20024;-67
2024/04/12 12:29:08;;;;;;;10.00;4.60;;;;;;;;;;5466643;26;20334;-66
2024/04/12 12:31:34;;;;;;;6.45;4.03;;;;;;;;;;5467083;26;20002;-66
2024/04/12 12:34:00;;;;;;;8.50;5.15;;;;;;;;;;5426409;26;20125;-65
2024/04/12 12:36:27;;;;;;;9.15;4.68;;;;;;;;;;5459414;26;20061;-66
2024/04/12 12:38:54;;;;;;;8.32;4.53;;;;;;;;;;5469635;26;20022;-67
2024/04/12 12:41:20;;;;;;;8.63;4.20;;;;;;;;;;5440719;26;20026;-67
2024/04/12 12:43:47;;;;;;;6.55;3.58;;;;;;;;;;5460915;26;20385;-66
2024/04/12 12:46:15;;;;;;;7.45;4.03;;;;;;;;;;5453493;26;20027;-66
2024/04/12 12:48:41;;;;;;;11.13;4.30;;;;;;;;;;5459261;26;20053;-65
2024/04/12 12:51:09;;;;;;;5.55;3.65;;;;;;;;;;5461661;26;20034;-65
2024/04/12 12:53:36;;;;;;;7.15;3.70;;;;;;;;;;5454734;26;20069;-66
2024/04/12 12:56:08;;;;;;;6.68;3.80;;;;;;;;;;5438918;26;20035;-66
2024/04/12 12:58:37;;;;;;;7.47;3.95;;;;;;;;;;5456820;26;20407;-66
2024/04/12 13:01:07;;;;;;;7.05;4.32;;;;;;;;;;5457443;26;20026;-67
2024/04/12 13:03:36;;;;;;;8.13;3.65;;;;;;;;;;5453166;26;20102;-66
2024/04/12 13:06:09;;;;;;;5.75;3.80;;;;;;;;;;5468394;26;20364;-66
2024/04/12 13:08:36;;;;;;;6.78;3.28;;;;;;;;;;5473524;26;20034;-66
2024/04/12 13:11:08;;;;;;;7.25;3.60;;;;;;;;;;5460833;26;20033;-66
2024/04/12 13:13:41;;;;;;;7.28;3.17;;;;;;;;;;5428201;26;20056;-64
2024/04/12 13:16:11;;;;;;;6.40;3.20;;;;;;;;;;5461435;26;20019;-66
2024/04/12 13:18:45;;;;;;;4.65;3.00;;;;;;;;;;5463048;26;20049;-67
2024/04/12 13:21:14;;;;;;;6.43;2.72;;;;;;;;;;5458245;26;20506;-65
2024/04/12 13:23:41;;;;;;;9.40;3.65;;;;;;;;;;5464085;26;20025;-66
2024/04/12 13:26:08;;;;;;;6.18;2.90;;;;;;;;;;5475875;26;20035;-66
2024/04/12 13:28:38;;;;;;;6.22;3.10;;;;;;;;;;5475199;25;20025;-66
2024/04/12 13:31:05;;;;;;;5.32;3.10;;;;;;;;;;5462837;26;20043;-65
2024/04/12 13:33:31;;;;;;;6.25;3.17;;;;;;;;;;5482023;26;20025;-66
2024/04/12 13:36:00;;;;;;;6.03;2.92;;;;;;;;;;5468865;26;20042;-65
2024/04/12 13:38:27;;;;;;;;;;;;;;;;;;5469843;26;20031;-65
2024/04/12 13:41:00;;;;;;;7.43;3.10;;;;;;;;;;5434428;26;20299;-66
2024/04/12 13:43:27;;;;;;;6.32;2.15;;;;;;;;;;5460399;26;20038;-66
2024/04/12 13:51:28;;;;;;;4.30;1.90;;;;;;;;;;5460479;26;20027;-65
2024/04/12 13:53:55;;;;;;;5.50;2.30;;;;;;;;;;5466586;26;20042;-67
2024/04/12 13:58:58;;;;;;;4.85;2.10;;;;;;;;;;5464056;26;20035;-65
2024/04/12 14:01:29;;;;;;;3.70;2.10;;;;;;;;;;5477790;26;20038;-66
2024/04/12 14:03:58;;;;;;;5.38;1.75;;;;;;;;;;5474078;26;20385;-66
2024/04/12 14:06:25;;;;;;;;;;;;;;;;;;5460372;26;20053;-66
2024/04/12 14:08:52;;;;;;;4.63;1.92;;;;;;;;;;5461289;26;19956;-66
2024/04/12 14:11:19;;;;;;;4.13;1.80;;;;;;;;;;5459731;26;20031;-66
2024/04/12 14:13:46;;;;;;;3.85;1.70;;;;;;;;;;5463737;26;20454;-65
2024/04/12 14:16:13;;;;;;;4.95;1.95;;;;;;;;;;5464740;26;20035;-65
2024/04/12 14:18:39;;;;;;;4.40;2.00;;;;;;;;;;5457299;26;20034;-66
2024/04/12 14:21:08;;;;;;;3.80;1.77;;;;;;;;;;5468782;26;20023;-67
2024/04/12 14:23:34;;;;;;;4.05;1.80;;;;;;;;;;5456080;26;20034;-64
2024/04/12 14:26:00;;;;;;;2.72;1.70;;;;;;;;;;5455276;26;20026;-64
2024/04/12 14:28:26;;;;;;;4.38;1.90;;;;;;;;;;5478412;26;20020;-65
2024/04/12 14:30:53;;;;;;;5.85;2.03;;;;;;;;;;5470904;26;20328;-65
2024/04/12 14:33:22;;;;;;;5.45;1.98;;;;;;;;;;5454238;26;20026;-66
2024/04/12 14:35:48;;;;;;;5.45;1.83;;;;;;;;;;5469017;26;20026;-65
2024/04/12 14:38:15;;;;;;;5.07;1.98;;;;;;;;;;5478462;26;20025;-65
2024/04/12 14:40:51;;;;;;;2.50;1.63;;;;;;;;;;5472283;26;20378;-65
2024/04/12 14:43:18;;;;;;;4.40;1.85;;;;;;;;;;5459874;26;20027;-65
2024/04/12 14:45:45;;;;;;;7.90;2.22;;;;;;;;;;5453561;26;20027;-65
2024/04/12 14:48:13;;;;;;;6.25;2.15;;;;;;;;;;5456038;26;20494;-65
2024/04/12 14:50:40;;;;;;;3.28;1.77;;;;;;;;;;5454535;26;20019;-66
2024/04/12 14:53:07;;;;;;;4.47;2.05;;;;;;;;;;5481783;26;20035;-65
2024/04/12 14:55:33;;;;;;;5.30;2.00;;;;;;;;;;5468362;26;20030;-65
2024/04/12 14:57:59;;;;;;;4.82;1.70;;;;;;;;;;5465834;26;20023;-65
2024/04/12 15:00:26;;;;;;;3.75;2.15;;;;;;;;;;5476320;26;20022;-65
2024/04/12 15:49:28;;;;;;;10.95;5.45;;;;;;;;;;5460935;25;20042;-66
2024/04/12 15:52:08;;;;;;;13.10;5.07;;;;;;;;;;5462890;26;20018;-66
2024/04/12 15:54:37;;;;;;;17.30;6.10;;;;;;;;;;5466377;26;20022;-67
2024/04/12 16:10:49;;;;;;;15.98;6.95;;;;;;;;;;5471055;26;20217;-66
2024/04/12 16:13:21;;;;;;;15.98;7.25;;;;;;;;;;5464717;26;20049;-67
2024/04/12 16:15:48;;;;;;;17.13;7.63;;;;;;;;;;5464598;26;20100;-66
2024/04/12 16:18:14;;;;;;;20.00;8.15;;;;;;;;;;5464573;26;20035;-66
2024/04/12 16:20:40;;;;;;;18.58;7.90;;;;;;;;;;5462846;26;20018;-65
2024/04/12 16:23:09;;;;;;;19.67;7.53;;;;;;;;;;5461168;26;20022;-66
2024/04/12 16:25:36;;;;;;;21.30;7.60;;;;;;;;;;5462662;26;20039;-66
2024/04/12 16:28:02;;;;;;;13.85;6.95;;;;;;;;;;5467998;26;20035;-65
2024/04/12 16:30:28;;;;;;;17.42;7.60;;;;;;;;;;5470062;26;20033;-67
2024/04/12 16:32:54;;;;;;;20.30;7.82;;;;;;;;;;5441904;26;20034;-66
2024/04/12 16:35:21;;;;;;;15.00;7.38;;;;;;;;;;5466469;26;20039;-66
2024/04/12 16:37:47;;;;;;;19.35;8.30;;;;;;;;;;5474863;26;20038;-66
2024/04/12 16:40:14;;;;;;;14.93;7.38;;;;;;;;;;5468086;26;19998;-66
2024/04/12 16:42:40;;;;;;;14.32;6.65;;;;;;;;;;5465582;26;20015;-67
2024/04/12 16:45:07;;;;;;;13.40;6.32;;;;;;;;;;5472200;26;20018;-65
2024/04/12 16:47:33;;;;;;;16.20;6.72;;;;;;;;;;5466895;26;20018;-65
2024/04/12 16:50:03;;;;;;;16.20;6.10;;;;;;;;;;5470562;26;20021;-66
2024/04/12 16:52:29;;;;;;;15.35;6.60;;;;;;;;;;5465537;26;20085;-67
2024/04/12 16:54:55;;;;;;;16.60;6.25;;;;;;;;;;5433555;26;19999;-65
2024/04/12 16:57:22;;;;;;;14.57;6.43;;;;;;;;;;5469553;26;20042;-66
2024/04/12 16:59:48;;;;;;;14.27;5.40;;;;;;;;;;5468655;25;20029;-66
2024/04/12 17:02:14;;;;;;;10.05;5.13;;;;;;;;;;5455363;26;20038;-66
2024/04/12 17:04:40;;;;;;;13.85;5.25;;;;;;;;;;5461297;26;20050;-65
2024/04/12 17:07:08;;;;;;;13.23;5.20;;;;;;;;;;5434321;26;20022;-67
2024/04/12 17:09:35;;;;;;;17.10;4.80;;;;;;;;;;5473579;26;20101;-67
2024/04/12 17:12:01;;;;;;;8.38;5.07;;;;;;;;;;5475175;26;20028;-67
2024/04/12 17:14:29;;;;;;;39.70;16.52;;;;;;;;;;5471977;26;20043;-65
2024/04/12 17:16:55;;;;;;;163.73;38.65;;;;;;;;;;5468464;26;20144;-67
2024/04/12 17:19:21;;;;;;;32.70;12.82;;;;;;;;;;5478405;26;20039;-68
2024/04/12 17:21:47;;;;;;;22.02;7.55;;;;;;;;;;5474971;26;20038;-67
2024/04/12 17:24:14;;;;;;;11.43;4.22;;;;;;;;;;5450364;26;20026;-67